createdAt,value
2018-10-17T00:03:54.688Z,58.29
2018-10-17T00:06:10.094Z,58.29
2018-10-17T00:08:23.523Z,58.29
2018-10-17T00:10:42.777Z,58.23
2018-10-17T00:12:47.296Z,58.23
2018-10-17T00:17:07.266Z,58.33
2018-10-17T00:19:17.917Z,58.40
2018-10-17T00:21:30.788Z,58.44
2018-10-17T00:23:43.630Z,58.50
2018-10-17T00:26:07.748Z,58.61
2018-10-17T00:28:25.457Z,58.70
2018-10-17T00:30:32.493Z,58.73
2018-10-17T00:32:55.324Z,58.77
2018-10-17T00:35:11.529Z,58.83
2018-10-17T00:37:24.515Z,58.87
2018-10-17T00:39:33.867Z,58.96
2018-10-17T00:42:03.054Z,59.01
2018-10-17T00:44:23.345Z,59.01
2018-10-17T00:46:32.689Z,58.97
2018-10-17T00:48:42.127Z,59.00
2018-10-17T00:50:51.550Z,59.03
2018-10-17T00:53:05.410Z,59.01
2018-10-17T00:55:27.853Z,58.96
2018-10-17T00:57:34.615Z,58.89
2018-10-17T00:59:46.903Z,58.91
2018-10-17T01:01:59.427Z,58.96
2018-10-17T01:04:06.836Z,59.07
2018-10-17T01:06:17.432Z,59.17
2018-10-17T01:08:35.901Z,59.24
2018-10-17T01:11:05.332Z,59.27
2018-10-17T01:13:13.572Z,59.19
2018-10-17T01:15:21.537Z,59.15
2018-10-17T01:17:30.558Z,59.22
2018-10-17T01:19:38.574Z,59.28
2018-10-17T01:21:46.797Z,59.36
2018-10-17T01:23:54.826Z,59.45
2018-10-17T01:26:03.508Z,59.52
2018-10-17T01:28:11.606Z,59.57
2018-10-17T01:30:19.708Z,59.60
2018-10-17T01:32:27.660Z,59.62
2018-10-17T01:34:36.406Z,59.62
2018-10-17T01:36:44.507Z,59.61
2018-10-17T01:38:52.517Z,59.64
2018-10-17T01:41:04.440Z,59.70
2018-10-17T01:43:12.795Z,59.76
2018-10-17T01:45:20.792Z,59.76
2018-10-17T01:47:28.835Z,59.79
2018-10-17T01:49:36.834Z,59.81
2018-10-17T01:51:44.845Z,59.86
2018-10-17T01:53:52.881Z,59.86
2018-10-17T01:56:01.854Z,59.88
2018-10-17T01:58:10.592Z,59.90
2018-10-17T02:00:21.323Z,59.87
2018-10-17T02:02:29.694Z,59.86
2018-10-17T02:04:37.719Z,59.86
2018-10-17T02:06:45.848Z,59.87
2018-10-17T02:08:55.906Z,59.92
2018-10-17T02:11:04.459Z,59.94
2018-10-17T02:13:12.504Z,59.95
2018-10-17T02:15:20.493Z,59.98
2018-10-17T02:17:28.574Z,60.01
2018-10-17T02:19:37.197Z,60.06
2018-10-17T02:21:45.232Z,60.04
2018-10-17T02:23:53.966Z,59.98
2018-10-17T02:26:01.984Z,60.01
2018-10-17T02:28:10.092Z,60.02
2018-10-17T02:30:19.306Z,59.97
2018-10-17T02:32:27.442Z,60.00
2018-10-17T02:34:54.786Z,60.00
2018-10-17T02:37:02.910Z,60.02
2018-10-17T02:39:12.130Z,60.03
2018-10-17T02:41:20.864Z,60.11
2018-10-17T02:43:28.867Z,60.20
2018-10-17T02:45:37.468Z,60.23
2018-10-17T02:47:46.778Z,60.24
2018-10-17T02:49:54.717Z,60.21
2018-10-17T02:52:02.747Z,60.17
2018-10-17T02:54:11.044Z,60.15
2018-10-17T02:56:19.135Z,60.05
2018-10-17T02:58:27.057Z,59.96
2018-10-17T03:00:35.078Z,59.87
2018-10-17T03:02:45.694Z,59.78
2018-10-17T03:04:53.997Z,59.70
2018-10-17T03:09:11.364Z,59.66
2018-10-17T03:11:19.922Z,59.71
2018-10-17T03:13:28.098Z,59.80
2018-10-17T03:15:36.469Z,59.92
2018-10-17T03:17:44.480Z,60.05
2018-10-17T03:19:52.569Z,60.15
2018-10-17T03:22:03.455Z,60.22
2018-10-17T03:24:11.371Z,60.25
2018-10-17T03:26:19.416Z,60.26
2018-10-17T03:28:27.446Z,60.30
2018-10-17T03:30:35.428Z,60.33
2018-10-17T03:32:43.857Z,60.37
2018-10-17T03:34:51.880Z,60.33
2018-10-17T03:36:59.963Z,60.28
2018-10-17T03:39:12.484Z,60.26
2018-10-17T03:41:20.566Z,60.23
2018-10-17T03:43:28.522Z,60.20
2018-10-17T03:45:36.571Z,60.15
2018-10-17T03:47:45.011Z,60.16
2018-10-17T03:49:53.284Z,60.23
2018-10-17T03:52:01.103Z,60.35
2018-10-17T03:54:09.419Z,60.48
2018-10-17T03:56:17.701Z,60.58
2018-10-17T03:58:25.693Z,60.67
2018-10-17T04:00:36.268Z,60.71
2018-10-17T04:02:45.576Z,60.76
2018-10-17T04:04:54.034Z,60.80
2018-10-17T04:07:02.081Z,60.78
2018-10-17T04:09:10.938Z,60.71
2018-10-17T04:11:19.963Z,60.74
2018-10-17T04:13:29.387Z,60.71
2018-10-17T04:15:40.005Z,60.69
2018-10-17T04:17:53.514Z,60.70
2018-10-17T04:20:02.407Z,60.71
2018-10-17T04:22:12.515Z,60.75
2018-10-17T04:24:20.561Z,60.75
2018-10-17T04:26:28.858Z,60.73
2018-10-17T04:28:39.264Z,60.75
2018-10-17T04:30:47.232Z,60.80
2018-10-17T04:32:55.277Z,60.78
2018-10-17T04:35:03.357Z,60.78
2018-10-17T04:37:15.449Z,60.79
2018-10-17T04:39:21.169Z,60.79
2018-10-17T04:41:29.394Z,60.76
2018-10-17T04:43:37.453Z,60.81
2018-10-17T04:45:45.416Z,60.88
2018-10-17T04:47:53.561Z,60.93
2018-10-17T04:50:01.500Z,61.00
2018-10-17T04:52:09.578Z,61.05
2018-10-17T04:54:17.567Z,61.12
2018-10-17T04:56:26.002Z,61.14
2018-10-17T04:58:34.250Z,61.17
2018-10-17T05:00:42.412Z,61.20
2018-10-17T05:02:52.619Z,61.20
2018-10-17T05:05:00.725Z,61.25
2018-10-17T05:07:08.785Z,61.25
2018-10-17T05:09:17.043Z,61.17
2018-10-17T05:11:25.543Z,61.10
2018-10-17T05:13:33.552Z,61.09
2018-10-17T05:15:41.910Z,61.11
2018-10-17T05:17:49.857Z,61.13
2018-10-17T05:19:57.892Z,61.16
2018-10-17T05:22:05.938Z,61.17
2018-10-17T05:24:13.913Z,61.13
2018-10-17T05:26:21.928Z,61.17
2018-10-17T05:28:30.463Z,61.20
2018-10-17T05:30:38.829Z,61.28
2018-10-17T05:32:52.047Z,61.31
2018-10-17T05:35:00.068Z,61.38
2018-10-17T05:37:08.157Z,61.35
2018-10-17T05:39:16.071Z,61.29
2018-10-17T05:41:24.332Z,61.19
2018-10-17T05:43:32.399Z,61.06
2018-10-17T05:45:40.439Z,60.97
2018-10-17T05:47:48.471Z,60.99
2018-10-17T05:49:57.748Z,61.06
2018-10-17T05:52:05.833Z,61.17
2018-10-17T05:54:14.139Z,61.26
2018-10-17T05:56:22.243Z,61.32
2018-10-17T05:58:30.198Z,61.40
2018-10-17T06:00:39.652Z,61.46
2018-10-17T06:02:49.228Z,61.41
2018-10-17T06:04:57.278Z,61.34
2018-10-17T06:07:05.841Z,61.31
2018-10-17T06:09:13.925Z,61.33
2018-10-17T06:11:24.742Z,61.35
2018-10-17T06:13:36.158Z,61.40
2018-10-17T06:15:45.082Z,61.48
2018-10-17T06:17:56.081Z,61.57
2018-10-17T06:20:04.197Z,61.64
2018-10-17T06:22:13.112Z,61.63
2018-10-17T06:24:21.146Z,61.68
2018-10-17T06:26:29.296Z,61.68
2018-10-17T06:28:37.350Z,61.69
2018-10-17T06:30:45.435Z,61.69
2018-10-17T06:32:53.394Z,61.68
2018-10-17T06:35:01.383Z,61.70
2018-10-17T06:37:09.827Z,61.77
2018-10-17T06:39:18.129Z,61.86
2018-10-17T06:41:26.282Z,61.96
2018-10-17T06:43:34.514Z,62.02
2018-10-17T06:45:44.279Z,62.05
2018-10-17T06:47:52.631Z,62.07
2018-10-17T06:50:00.637Z,62.02
2018-10-17T06:52:08.721Z,61.90
2018-10-17T06:54:16.819Z,61.79
2018-10-17T06:56:25.214Z,61.72
2018-10-17T06:58:33.289Z,61.60
2018-10-17T07:00:42.863Z,61.52
2018-10-17T07:02:50.860Z,61.46
2018-10-17T07:04:58.893Z,61.42
2018-10-17T07:07:06.990Z,61.41
2018-10-17T07:09:14.932Z,61.42
2018-10-17T07:11:23.038Z,61.42
2018-10-17T07:13:31.476Z,61.46
2018-10-17T07:15:39.679Z,61.52
2018-10-17T07:17:47.737Z,61.55
2018-10-17T07:19:55.769Z,61.58
2018-10-17T07:22:05.251Z,61.61
2018-10-17T07:24:13.455Z,61.64
2018-10-17T07:26:21.523Z,61.67
2018-10-17T07:28:29.561Z,61.73
2018-10-17T07:30:37.744Z,61.76
2018-10-17T07:32:49.835Z,61.78
2018-10-17T07:34:57.873Z,61.82
2018-10-17T07:37:06.107Z,61.84
2018-10-17T07:39:14.159Z,61.90
2018-10-17T07:41:24.584Z,61.92
2018-10-17T07:43:33.800Z,61.91
2018-10-17T07:45:41.999Z,61.88
2018-10-17T07:47:51.603Z,61.86
2018-10-17T07:50:00.345Z,61.85
2018-10-17T07:52:09.628Z,61.82
2018-10-17T07:54:17.689Z,61.80
2018-10-17T07:56:25.820Z,61.76
2018-10-17T07:58:34.051Z,61.75
2018-10-17T08:00:42.080Z,61.71
2018-10-17T08:02:50.055Z,61.65
2018-10-17T08:04:58.559Z,61.60
2018-10-17T08:07:07.044Z,61.59
2018-10-17T08:09:15.091Z,61.57
2018-10-17T08:11:23.072Z,61.52
2018-10-17T08:13:31.301Z,61.49
2018-10-17T08:15:39.384Z,61.45
2018-10-17T08:17:47.432Z,61.39
2018-10-17T08:19:55.471Z,61.33
2018-10-17T08:22:09.827Z,61.30
2018-10-17T08:24:18.284Z,61.25
2018-10-17T08:26:27.492Z,61.20
2018-10-17T08:28:35.521Z,61.13
2018-10-17T08:30:43.601Z,61.08
2018-10-17T08:32:51.628Z,61.00
2018-10-17T08:34:59.631Z,60.93
2018-10-17T08:37:08.962Z,60.89
2018-10-17T08:39:16.746Z,60.76
2018-10-17T08:41:25.161Z,60.66
2018-10-17T08:43:33.161Z,60.53
2018-10-17T08:45:38.603Z,60.43
2018-10-17T08:47:47.788Z,60.32
2018-10-17T08:49:55.839Z,60.16
2018-10-17T08:52:05.091Z,60.02
2018-10-17T08:54:13.111Z,59.95
2018-10-17T08:56:21.259Z,59.87
2018-10-17T08:58:29.720Z,59.76
2018-10-17T09:00:37.702Z,59.63
2018-10-17T09:02:45.912Z,59.50
2018-10-17T09:04:53.935Z,59.38
2018-10-17T09:07:02.057Z,59.22
2018-10-17T09:09:14.560Z,59.16
2018-10-17T09:11:24.823Z,59.05
2018-10-17T09:13:33.359Z,58.92
2018-10-17T09:15:41.244Z,58.82
2018-10-17T09:17:49.364Z,58.63
2018-10-17T09:19:57.679Z,58.43
2018-10-17T09:22:07.339Z,58.27
2018-10-17T09:24:15.065Z,58.11
2018-10-17T09:26:23.034Z,57.94
2018-10-17T09:28:31.133Z,57.77
2018-10-17T09:30:41.675Z,57.68
2018-10-17T09:32:49.659Z,57.59
2018-10-17T09:34:58.322Z,57.52
2018-10-17T09:37:06.444Z,57.40
2018-10-17T09:39:14.496Z,57.34
2018-10-17T09:41:22.654Z,57.20
2018-10-17T09:43:30.986Z,57.10
2018-10-17T09:45:42.402Z,56.93
2018-10-17T09:47:47.801Z,56.80
2018-10-17T09:49:55.853Z,56.65
2018-10-17T09:54:13.114Z,56.29
2018-10-17T09:56:21.023Z,56.22
2018-10-17T09:58:29.134Z,55.98
2018-10-17T10:00:57.142Z,55.85
2018-10-17T10:03:19.370Z,55.66
2018-10-17T10:05:39.092Z,55.57
2018-10-17T10:07:42.309Z,55.49
2018-10-17T10:09:50.302Z,55.38
2018-10-17T10:11:58.387Z,55.23
2018-10-17T10:14:06.684Z,55.10
2018-10-17T10:16:15.007Z,54.98
2018-10-17T10:18:23.096Z,54.92
2018-10-17T10:20:31.019Z,54.66
2018-10-17T10:22:39.030Z,54.53
2018-10-17T10:24:47.871Z,54.45
2018-10-17T10:26:55.849Z,54.36
2018-10-17T10:29:04.007Z,54.20
2018-10-17T10:31:12.317Z,54.04
2018-10-17T10:33:20.448Z,53.98
2018-10-17T10:35:28.475Z,53.85
2018-10-17T10:37:36.606Z,53.78
2018-10-17T10:39:44.660Z,53.65
2018-10-17T10:41:52.614Z,53.47
2018-10-17T10:44:01.450Z,53.39
2018-10-17T10:46:10.454Z,53.10
2018-10-17T10:48:19.233Z,52.71
2018-10-17T10:50:27.280Z,52.73
2018-10-17T10:52:35.367Z,52.57
2018-10-17T10:54:43.658Z,52.53
2018-10-17T10:56:52.333Z,52.51
2018-10-17T10:59:01.052Z,52.46
2018-10-17T11:01:16.341Z,52.38
2018-10-17T11:03:24.490Z,52.33
2018-10-17T11:05:33.314Z,52.14
2018-10-17T11:07:41.028Z,52.15
2018-10-17T11:09:49.062Z,51.88
2018-10-17T11:11:57.152Z,51.77
2018-10-17T11:14:05.445Z,51.65
2018-10-17T11:16:13.412Z,51.64
2018-10-17T11:18:21.787Z,51.55
2018-10-17T11:20:29.817Z,51.47
2018-10-17T11:22:37.855Z,51.36
2018-10-17T11:24:45.846Z,51.16
2018-10-17T11:26:53.908Z,51.04
2018-10-17T11:29:01.923Z,50.83
2018-10-17T11:31:09.889Z,50.80
2018-10-17T11:33:18.006Z,50.71
2018-10-17T11:35:26.933Z,50.63
2018-10-17T11:37:35.029Z,50.56
2018-10-17T11:39:45.859Z,50.52
2018-10-17T11:41:54.646Z,50.24
2018-10-17T11:44:02.745Z,50.14
2018-10-17T11:46:10.892Z,50.11
2018-10-17T11:48:32.129Z,50.04
2018-10-17T11:50:42.502Z,49.94
2018-10-17T11:52:50.900Z,49.93
2018-10-17T11:54:58.972Z,49.82
2018-10-17T11:57:07.216Z,49.73
2018-10-17T11:59:16.474Z,49.59
2018-10-17T12:01:24.446Z,49.57
2018-10-17T12:03:32.582Z,49.37
2018-10-17T12:05:41.032Z,49.36
2018-10-17T12:07:48.542Z,49.30
2018-10-17T12:09:56.554Z,49.21
2018-10-17T12:12:06.542Z,49.11
2018-10-17T12:14:17.017Z,48.96
2018-10-17T12:16:25.022Z,48.97
2018-10-17T12:18:33.067Z,48.76
2018-10-17T12:20:41.796Z,48.56
2018-10-17T12:22:49.913Z,48.45
2018-10-17T12:24:57.895Z,48.37
2018-10-17T12:27:05.953Z,48.28
2018-10-17T12:29:14.419Z,48.20
2018-10-17T12:31:22.424Z,48.13
2018-10-17T12:33:30.667Z,47.97
2018-10-17T12:35:38.694Z,47.90
2018-10-17T12:37:46.818Z,47.87
2018-10-17T12:39:54.945Z,47.66
2018-10-17T12:42:02.816Z,47.71
2018-10-17T12:44:10.966Z,47.64
2018-10-17T12:46:19.426Z,47.45
2018-10-17T12:48:27.400Z,47.48
2018-10-17T12:50:36.796Z,47.47
2018-10-17T12:52:43.579Z,47.31
2018-10-17T12:54:51.727Z,47.12
2018-10-17T12:56:59.888Z,47.04
2018-10-17T12:59:08.191Z,46.83
2018-10-17T13:01:16.246Z,46.75
2018-10-17T13:03:24.749Z,46.55
2018-10-17T13:05:32.832Z,46.58
2018-10-17T13:07:41.002Z,46.39
2018-10-17T13:09:49.673Z,46.15
2018-10-17T13:11:57.723Z,45.99
2018-10-17T13:14:26.008Z,45.80
2018-10-17T13:16:39.298Z,45.74
2018-10-17T13:18:47.809Z,45.46
2018-10-17T13:20:55.875Z,45.44
2018-10-17T13:23:03.963Z,45.37
2018-10-17T13:25:12.093Z,45.15
2018-10-17T13:27:20.062Z,45.05
2018-10-17T13:29:28.149Z,45.10
2018-10-17T13:31:36.281Z,44.92
2018-10-17T13:33:44.366Z,44.81
2018-10-17T13:35:52.789Z,44.53
2018-10-17T13:38:00.892Z,44.52
2018-10-17T13:40:08.945Z,44.55
2018-10-17T13:42:17.011Z,44.37
2018-10-17T13:44:25.079Z,44.32
2018-10-17T13:46:34.004Z,44.30
2018-10-17T13:48:42.060Z,44.34
2018-10-17T13:50:50.484Z,44.27
2018-10-17T13:52:59.627Z,44.13
2018-10-17T13:55:08.923Z,44.00
2018-10-17T13:57:17.862Z,44.01
2018-10-17T13:59:26.010Z,43.69
2018-10-17T14:01:34.054Z,43.73
2018-10-17T14:03:44.273Z,43.63
2018-10-17T14:05:54.484Z,43.45
2018-10-17T14:08:03.782Z,43.48
2018-10-17T14:10:11.848Z,43.46
2018-10-17T14:15:06.008Z,43.56
2018-10-17T14:17:14.092Z,43.67
2018-10-17T14:19:22.789Z,43.56
2018-10-17T14:21:30.972Z,43.56
2018-10-17T14:23:39.148Z,43.32
2018-10-17T14:25:48.380Z,43.38
2018-10-17T14:27:56.388Z,43.32
2018-10-17T14:30:05.902Z,43.27
2018-10-17T14:32:15.069Z,43.27
2018-10-17T14:34:24.015Z,43.19
2018-10-17T14:36:32.919Z,43.20
2018-10-17T14:38:41.003Z,43.07
2018-10-17T14:40:49.455Z,43.13
2018-10-17T14:42:57.648Z,43.07
2018-10-17T14:45:05.762Z,42.95
2018-10-17T14:47:16.860Z,42.97
2018-10-17T14:49:27.028Z,42.97
2018-10-17T14:51:35.694Z,42.98
2018-10-17T14:53:44.571Z,42.99
2018-10-17T14:55:52.950Z,43.01
2018-10-17T14:58:00.848Z,43.00
2018-10-17T15:00:13.105Z,43.03
2018-10-17T15:02:21.163Z,43.02
2018-10-17T15:04:29.258Z,43.03
2018-10-17T15:06:39.522Z,43.01
2018-10-17T15:08:47.530Z,43.11
2018-10-17T15:10:55.795Z,43.25
2018-10-17T15:13:03.721Z,43.31
2018-10-17T15:15:13.592Z,43.42
2018-10-17T15:17:21.580Z,43.47
2018-10-17T15:19:29.685Z,43.56
2018-10-17T15:21:38.417Z,43.62
2018-10-17T15:23:46.436Z,43.69
2018-10-17T15:25:54.634Z,43.75
2018-10-17T15:28:02.726Z,43.82
2018-10-17T15:30:11.039Z,43.92
2018-10-17T15:32:19.030Z,44.01
2018-10-17T15:34:27.113Z,44.10
2018-10-17T15:36:36.155Z,44.14
2018-10-17T15:38:44.590Z,44.21
2018-10-17T15:40:53.793Z,44.29
2018-10-17T15:43:01.837Z,44.36
2018-10-17T15:45:09.948Z,44.42
2018-10-17T15:47:18.991Z,44.49
2018-10-17T15:49:27.039Z,44.54
2018-10-17T15:51:36.550Z,44.62
2018-10-17T15:53:45.714Z,44.65
2018-10-17T15:55:52.203Z,44.74
2018-10-17T15:58:00.232Z,44.80
2018-10-17T16:00:10.727Z,44.83
2018-10-17T16:02:18.749Z,44.89
2018-10-17T16:04:26.773Z,44.96
2018-10-17T16:06:34.810Z,45.00
2018-10-17T16:08:42.855Z,45.06
2018-10-17T16:10:51.265Z,45.16
2018-10-17T16:13:02.818Z,45.23
2018-10-17T16:15:12.001Z,45.31
2018-10-17T16:17:20.083Z,45.36
2018-10-17T16:19:28.055Z,45.40
2018-10-17T16:21:36.167Z,45.45
2018-10-17T16:23:44.477Z,45.49
2018-10-17T16:25:52.655Z,45.56
2018-10-17T16:28:01.577Z,45.62
2018-10-17T16:30:12.771Z,45.68
2018-10-17T16:32:21.206Z,45.70
2018-10-17T16:34:29.352Z,45.75
2018-10-17T16:36:37.916Z,45.81
2018-10-17T16:38:46.419Z,45.89
2018-10-17T16:40:55.796Z,45.96
2018-10-17T16:43:04.059Z,46.02
2018-10-17T16:45:12.681Z,46.06
2018-10-17T16:47:20.770Z,46.13
2018-10-17T16:49:28.796Z,46.21
2018-10-17T16:51:36.809Z,46.27
2018-10-17T16:53:44.852Z,46.33
2018-10-17T16:55:53.166Z,46.39
2018-10-17T16:57:59.397Z,46.45
2018-10-17T17:00:09.593Z,46.51
2018-10-17T17:02:17.642Z,46.55
2018-10-17T17:04:25.768Z,46.61
2018-10-17T17:06:33.845Z,46.63
2018-10-17T17:08:42.363Z,46.67
2018-10-17T17:10:50.732Z,46.72
2018-10-17T17:12:58.769Z,46.78
2018-10-17T17:15:06.970Z,46.88
2018-10-17T17:17:14.980Z,46.92
2018-10-17T17:19:24.314Z,46.95
2018-10-17T17:21:32.443Z,47.01
2018-10-17T17:23:40.487Z,47.04
2018-10-17T17:25:48.590Z,47.12
2018-10-17T17:27:56.632Z,47.17
2018-10-17T17:30:04.996Z,47.27
2018-10-17T17:32:13.236Z,47.33
2018-10-17T17:34:21.534Z,47.38
2018-10-17T17:36:29.897Z,47.42
2018-10-17T17:38:38.029Z,47.48
2018-10-17T17:40:46.758Z,47.58
2018-10-17T17:42:54.781Z,47.67
2018-10-17T17:45:02.958Z,47.71
2018-10-17T17:47:11.129Z,47.80
2018-10-17T17:49:21.769Z,47.88
2018-10-17T17:51:29.920Z,48.00
2018-10-17T17:53:38.330Z,48.05
2018-10-17T17:55:46.459Z,48.13
2018-10-17T17:57:55.219Z,48.24
2018-10-17T18:00:03.700Z,48.31
2018-10-17T18:02:12.215Z,48.42
2018-10-17T18:04:21.300Z,48.46
2018-10-17T18:06:29.757Z,48.55
2018-10-17T18:08:37.886Z,48.63
2018-10-17T18:10:45.952Z,48.75
2018-10-17T18:12:53.994Z,48.87
2018-10-17T18:15:07.954Z,49.01
2018-10-17T18:17:17.015Z,49.04
2018-10-17T18:19:25.800Z,49.10
2018-10-17T18:21:34.979Z,49.16
2018-10-17T18:23:51.156Z,49.20
2018-10-17T18:25:53.456Z,49.24
2018-10-17T18:28:00.136Z,49.25
2018-10-17T18:30:13.278Z,49.32
2018-10-17T18:32:24.101Z,49.40
2018-10-17T18:34:33.644Z,49.51
2018-10-17T18:36:45.879Z,49.62
2018-10-17T18:48:59.329Z,49.89
2018-10-17T18:51:07.703Z,49.99
2018-10-17T18:53:15.991Z,50.27
2018-10-17T18:55:24.091Z,50.44
2018-10-17T18:57:32.907Z,50.63
2018-10-17T18:59:41.080Z,50.81
2018-10-17T19:01:49.220Z,50.95
2018-10-17T19:03:57.361Z,51.09
2018-10-17T19:06:05.531Z,51.27
2018-10-17T19:08:14.008Z,51.40
2018-10-17T19:10:21.950Z,51.52
2018-10-17T19:12:32.950Z,51.56
2018-10-17T19:14:41.025Z,51.55
2018-10-17T19:16:49.151Z,51.56
2018-10-17T19:18:57.344Z,51.62
2018-10-17T19:21:05.521Z,51.77
2018-10-17T19:23:13.601Z,51.96
2018-10-17T19:25:20.529Z,52.10
2018-10-17T19:27:25.860Z,52.25
2018-10-17T19:29:35.361Z,52.36
2018-10-17T19:31:46.067Z,52.44
2018-10-17T19:33:55.276Z,52.46
2018-10-17T19:38:49.806Z,52.54
2018-10-17T19:40:58.356Z,52.40
2018-10-17T19:43:06.775Z,52.37
2018-10-17T19:45:24.351Z,52.33
2018-10-17T19:47:29.806Z,52.38
2018-10-17T19:49:37.934Z,52.49
2018-10-17T19:51:46.047Z,52.65
2018-10-17T19:53:58.141Z,52.76
2018-10-17T19:56:09.584Z,52.81
2018-10-17T19:58:17.636Z,52.83
2018-10-17T20:00:25.702Z,52.81
2018-10-17T20:02:33.721Z,52.89
2018-10-17T20:04:41.890Z,52.97
2018-10-17T20:06:49.953Z,53.06
2018-10-17T20:08:58.896Z,53.17
2018-10-17T20:11:07.025Z,53.28
2018-10-17T20:13:21.421Z,53.37
2018-10-17T20:15:30.413Z,53.47
2018-10-17T20:17:38.571Z,53.50
2018-10-17T20:19:46.647Z,53.50
2018-10-17T20:21:57.551Z,53.49
2018-10-17T20:24:06.497Z,53.48
2018-10-17T20:26:14.838Z,53.53
2018-10-17T20:28:23.434Z,53.56
2018-10-17T20:30:32.273Z,53.56
2018-10-17T20:32:41.769Z,53.56
2018-10-17T20:34:50.599Z,53.61
2018-10-17T20:36:58.737Z,53.72
2018-10-17T20:39:10.709Z,53.88
2018-10-17T20:41:21.499Z,53.97
2018-10-17T20:43:29.593Z,54.01
2018-10-17T20:45:40.533Z,54.09
2018-10-17T20:48:17.549Z,54.15
2018-10-17T20:50:25.717Z,54.24
2018-10-17T20:52:34.780Z,54.29
2018-10-17T20:54:42.782Z,54.43
2018-10-17T20:56:51.091Z,54.48
2018-10-17T20:59:25.005Z,54.60
2018-10-17T21:01:33.094Z,54.66
2018-10-17T21:03:41.529Z,54.65
2018-10-17T21:05:52.670Z,54.72
2018-10-17T21:08:01.020Z,54.81
2018-10-17T21:10:10.632Z,54.86
2018-10-17T21:12:18.720Z,54.92
2018-10-17T21:14:28.894Z,55.02
2018-10-17T21:16:37.222Z,55.09
2018-10-17T21:18:45.269Z,55.17
2018-10-17T21:25:06.287Z,55.39
2018-10-17T21:27:11.628Z,55.51
2018-10-17T21:29:20.558Z,55.61
2018-10-17T21:31:29.212Z,55.74
2018-10-17T21:33:38.171Z,55.81
2018-10-17T21:35:47.388Z,55.77
2018-10-17T21:42:10.317Z,55.53
2018-10-17T21:44:18.518Z,55.50
2018-10-17T21:46:26.669Z,55.61
2018-10-17T21:48:35.017Z,55.67
2018-10-17T21:50:50.384Z,55.76
2018-10-17T21:55:05.899Z,56.06
2018-10-17T21:57:14.404Z,56.23
2018-10-17T21:59:29.218Z,56.31
2018-10-17T22:01:37.699Z,56.40
2018-10-17T22:03:49.500Z,56.53
2018-10-17T22:06:08.628Z,56.58
2018-10-17T22:08:28.523Z,56.58
2018-10-17T22:10:36.527Z,56.58
2018-10-17T22:12:56.445Z,56.44
2018-10-17T22:15:16.072Z,56.35
2018-10-17T22:17:37.493Z,56.30
2018-10-17T22:19:56.753Z,56.35
2018-10-17T22:22:16.738Z,56.40
2018-10-17T22:24:36.834Z,56.52
2018-10-17T22:26:44.822Z,56.66
2018-10-17T22:29:04.479Z,56.81
2018-10-17T22:31:12.528Z,56.92
2018-10-17T22:33:20.694Z,57.03
2018-10-17T22:35:28.754Z,57.13
2018-10-17T22:37:36.750Z,57.14
2018-10-17T22:39:44.760Z,57.09
2018-10-17T22:41:52.801Z,57.01
2018-10-17T22:44:00.986Z,56.96
2018-10-17T22:46:10.236Z,56.90
2018-10-17T22:48:18.523Z,56.86
2018-10-17T22:50:26.518Z,56.83
2018-10-17T22:52:34.529Z,56.82
2018-10-17T22:54:42.588Z,56.83
2018-10-17T22:56:50.591Z,56.82
2018-10-17T22:59:01.014Z,56.79
2018-10-17T23:01:09.560Z,56.79
2018-10-17T23:03:23.931Z,56.79
2018-10-17T23:05:31.938Z,56.83
2018-10-17T23:07:39.970Z,56.91
2018-10-17T23:09:48.018Z,57.02
2018-10-17T23:11:56.032Z,57.09
2018-10-17T23:14:04.106Z,57.08
2018-10-17T23:16:12.567Z,57.07
2018-10-17T23:18:20.552Z,57.04
2018-10-17T23:20:30.590Z,57.03
2018-10-17T23:22:39.314Z,57.02
2018-10-17T23:24:47.503Z,56.96
2018-10-17T23:26:52.901Z,56.95
2018-10-17T23:29:01.298Z,56.98
2018-10-17T23:31:10.622Z,57.02
2018-10-17T23:33:18.691Z,57.16
2018-10-17T23:35:26.683Z,57.31
2018-10-17T23:37:35.300Z,57.45
2018-10-17T23:39:44.731Z,57.62
2018-10-17T23:41:53.768Z,57.73
2018-10-17T23:44:01.721Z,57.83
2018-10-17T23:46:09.715Z,57.83
2018-10-17T23:48:19.348Z,57.83
2018-10-17T23:50:27.393Z,57.83
2018-10-17T23:52:39.158Z,57.89
2018-10-17T23:54:47.130Z,57.97
2018-10-17T23:56:55.160Z,57.97
2018-10-17T23:59:03.262Z,58.05
